Time;durP1;ratioP1;P1;durP2;ratioP2;P2;SDS_P1;SDS_P2;PMS_P1;PMS_P2;Temp;Humidity;BMP_temperature;BMP_pressure;BME280_temperature;BME280_humidity;BME280_pressure;Samples;Min_cycle;Max_cycle;Signal;HPM_P1;HPM_P2
2023/05/09 00:01:44;;;;;;;10.80;6.88;;;;;;;;;;5069344;28;20052;-76
2023/05/09 00:04:10;;;;;;;9.38;7.10;;;;;;;;;;5068465;28;20053;-76
2023/05/09 00:06:37;;;;;;;11.20;6.57;;;;;;;;;;5066350;28;20091;-76
2023/05/09 00:09:04;;;;;;;14.63;8.02;;;;;;;;;;5071784;28;20498;-76
2023/05/09 00:11:30;;;;;;;10.38;6.70;;;;;;;;;;5055391;28;20083;-76
2023/05/09 00:13:57;;;;;;;9.90;6.22;;;;;;;;;;5071501;28;20456;-76
2023/05/09 00:16:23;;;;;;;9.80;6.50;;;;;;;;;;5052657;28;20052;-76
2023/05/09 00:18:50;;;;;;;10.85;6.90;;;;;;;;;;5071701;28;20339;-76
2023/05/09 00:21:16;;;;;;;11.68;7.68;;;;;;;;;;5051195;28;20135;-76
2023/05/09 00:23:43;;;;;;;15.65;8.27;;;;;;;;;;5071426;28;20051;-76
2023/05/09 00:26:09;;;;;;;11.23;8.13;;;;;;;;;;5049379;28;20047;-76
2023/05/09 00:28:36;;;;;;;13.25;8.10;;;;;;;;;;5072368;28;20058;-76
2023/05/09 00:31:03;;;;;;;14.55;9.63;;;;;;;;;;5048832;28;20052;-76
2023/05/09 00:33:29;;;;;;;14.97;9.13;;;;;;;;;;5064901;28;20461;-76
2023/05/09 00:35:55;;;;;;;11.27;7.88;;;;;;;;;;5049875;28;20060;-76
2023/05/09 00:38:22;;;;;;;12.73;7.85;;;;;;;;;;5075959;28;20052;-76
2023/05/09 00:40:48;;;;;;;10.43;7.07;;;;;;;;;;5061141;28;20128;-76
2023/05/09 00:43:15;;;;;;;10.85;8.07;;;;;;;;;;5075538;28;20131;-76
2023/05/09 00:45:45;;;;;;;10.83;6.97;;;;;;;;;;5049241;28;20053;-76
2023/05/09 00:48:13;;;;;;;14.40;11.07;;;;;;;;;;5073855;28;20442;-76
2023/05/09 00:50:40;;;;;;;15.80;11.00;;;;;;;;;;5073101;28;20063;-76
2023/05/09 00:53:07;;;;;;;19.55;12.50;;;;;;;;;;5075031;28;20047;-76
2023/05/09 00:55:33;;;;;;;13.73;10.63;;;;;;;;;;5071069;28;20160;-75
2023/05/09 00:58:00;;;;;;;11.07;7.15;;;;;;;;;;5075389;28;20470;-76
2023/05/09 01:00:26;;;;;;;10.38;7.05;;;;;;;;;;5069491;28;20048;-76
2023/05/09 01:02:54;;;;;;;9.70;8.00;;;;;;;;;;5074699;28;20054;-76
2023/05/09 01:05:22;;;;;;;11.63;7.75;;;;;;;;;;5067425;28;20052;-75
2023/05/09 01:07:51;;;;;;;8.10;7.18;;;;;;;;;;5075107;28;20127;-75
2023/05/09 01:10:33;;;;;;;8.75;6.68;;;;;;;;;;5057873;28;20085;-75
2023/05/09 01:13:18;;;;;;;8.85;6.45;;;;;;;;;;5073877;28;20052;-75
2023/05/09 01:15:53;;;;;;;7.57;6.05;;;;;;;;;;5064848;28;20052;-75
2023/05/09 01:18:20;;;;;;;9.77;6.70;;;;;;;;;;5074173;28;20058;-76
2023/05/09 01:20:58;;;;;;;8.73;6.05;;;;;;;;;;5062310;28;20048;-76
2023/05/09 01:23:34;;;;;;;9.07;6.38;;;;;;;;;;5074772;28;20131;-76
2023/05/09 01:26:02;;;;;;;7.85;5.75;;;;;;;;;;5062814;28;20044;-76
2023/05/09 01:28:47;;;;;;;7.95;5.57;;;;;;;;;;5074759;28;20136;-76
2023/05/09 01:31:14;;;;;;;8.23;5.55;;;;;;;;;;5051515;28;20054;-76
2023/05/09 01:33:41;;;;;;;6.82;5.00;;;;;;;;;;5074698;28;20139;-75
2023/05/09 01:36:11;;;;;;;7.78;4.70;;;;;;;;;;5060363;28;20048;-75
2023/05/09 01:38:37;;;;;;;5.50;4.70;;;;;;;;;;5074581;28;20486;-75
2023/05/09 01:41:05;;;;;;;6.20;5.03;;;;;;;;;;5046232;28;20400;-75
2023/05/09 01:43:32;;;;;;;7.82;5.85;;;;;;;;;;5074144;28;20498;-76
2023/05/09 01:45:59;;;;;;;9.90;5.30;;;;;;;;;;5045977;28;20099;-76
2023/05/09 01:48:27;;;;;;;6.15;4.97;;;;;;;;;;5074336;28;20044;-76
2023/05/09 01:50:54;;;;;;;6.78;4.93;;;;;;;;;;5072045;28;20127;-76
2023/05/09 01:53:21;;;;;;;6.95;4.68;;;;;;;;;;5074351;28;20102;-75
2023/05/09 01:55:48;;;;;;;8.15;5.05;;;;;;;;;;5071543;28;20044;-75
2023/05/09 01:58:15;;;;;;;6.43;4.45;;;;;;;;;;5073843;28;20072;-75
2023/05/09 02:00:42;;;;;;;8.13;4.40;;;;;;;;;;5068726;28;20404;-75
2023/05/09 02:03:09;;;;;;;5.75;4.05;;;;;;;;;;5073627;28;20061;-75
2023/05/09 02:05:36;;;;;;;13.93;4.63;;;;;;;;;;5068795;28;20106;-75
2023/05/09 02:08:03;;;;;;;12.52;5.45;;;;;;;;;;5073803;28;20819;-75
2023/05/09 02:10:30;;;;;;;17.35;5.63;;;;;;;;;;5064648;28;20090;-75
2023/05/09 02:12:56;;;;;;;11.98;4.93;;;;;;;;;;5073607;28;20062;-75
2023/05/09 02:15:23;;;;;;;7.00;4.45;;;;;;;;;;5065565;28;20056;-75
2023/05/09 02:17:50;;;;;;;5.80;4.07;;;;;;;;;;5073804;28;20056;-75
2023/05/09 02:20:16;;;;;;;7.38;4.25;;;;;;;;;;5062271;28;20127;-75
2023/05/09 02:22:43;;;;;;;6.25;4.50;;;;;;;;;;5071767;28;20040;-75
2023/05/09 02:25:10;;;;;;;6.40;4.82;;;;;;;;;;5066377;28;20066;-75
2023/05/09 02:27:38;;;;;;;5.85;4.63;;;;;;;;;;5073659;28;20056;-75
2023/05/09 02:30:07;;;;;;;6.57;3.72;;;;;;;;;;5060624;28;20111;-75
2023/05/09 02:32:34;;;;;;;7.15;4.20;;;;;;;;;;5073476;28;20052;-75
2023/05/09 02:35:02;;;;;;;5.30;3.90;;;;;;;;;;5058530;28;20164;-75
2023/05/09 02:37:29;;;;;;;4.45;3.88;;;;;;;;;;5073148;28;20492;-75
2023/05/09 02:39:57;;;;;;;5.63;3.53;;;;;;;;;;5064687;28;20057;-75
2023/05/09 02:42:24;;;;;;;6.97;3.53;;;;;;;;;;5072235;28;20444;-75
2023/05/09 02:44:53;;;;;;;3.85;3.42;;;;;;;;;;5060917;28;20092;-74
2023/05/09 02:47:20;;;;;;;4.35;3.00;;;;;;;;;;5068526;28;20041;-75
2023/05/09 02:49:46;;;;;;;3.90;3.45;;;;;;;;;;5065851;28;20128;-75
2023/05/09 02:52:13;;;;;;;4.80;2.95;;;;;;;;;;5068003;28;20132;-75
2023/05/09 02:54:39;;;;;;;5.25;3.58;;;;;;;;;;5067178;28;20059;-75
2023/05/09 02:57:05;;;;;;;3.50;3.20;;;;;;;;;;5066316;28;20099;-75
2023/05/09 02:59:32;;;;;;;4.72;3.05;;;;;;;;;;5067603;28;20059;-75
2023/05/09 03:01:58;;;;;;;3.60;3.25;;;;;;;;;;5064379;28;20056;-74
2023/05/09 03:04:25;;;;;;;4.07;3.67;;;;;;;;;;5067105;28;21453;-74
2023/05/09 03:06:51;;;;;;;3.88;3.10;;;;;;;;;;5052352;28;20076;-75
2023/05/09 03:09:17;;;;;;;4.20;2.97;;;;;;;;;;5069676;28;20404;-75
2023/05/09 03:11:44;;;;;;;4.13;2.72;;;;;;;;;;5060443;28;20495;-76
2023/05/09 03:14:12;;;;;;;4.63;2.72;;;;;;;;;;5071206;28;20052;-76
2023/05/09 03:16:38;;;;;;;4.55;2.65;;;;;;;;;;5045091;28;20083;-73
2023/05/09 03:19:04;;;;;;;3.17;2.50;;;;;;;;;;5072362;28;20084;-74
2023/05/09 03:21:31;;;;;;;5.97;2.65;;;;;;;;;;5069215;28;20041;-73
2023/05/09 03:23:58;;;;;;;5.17;2.10;;;;;;;;;;5071198;28;20041;-73
2023/05/09 03:26:25;;;;;;;5.40;2.78;;;;;;;;;;5067552;28;20044;-73
2023/05/09 03:28:51;;;;;;;4.00;2.40;;;;;;;;;;5072432;28;20476;-73
2023/05/09 03:31:18;;;;;;;3.25;2.05;;;;;;;;;;5066596;28;20044;-73
2023/05/09 03:33:44;;;;;;;2.55;1.75;;;;;;;;;;5069604;28;20145;-73
2023/05/09 03:36:10;;;;;;;3.65;2.30;;;;;;;;;;5061954;28;20507;-73
2023/05/09 03:38:37;;;;;;;2.63;1.75;;;;;;;;;;5072263;28;20049;-73
2023/05/09 03:41:03;;;;;;;3.42;2.22;;;;;;;;;;5065151;28;20051;-73
2023/05/09 03:43:29;;;;;;;3.28;2.20;;;;;;;;;;5070744;28;20041;-73
2023/05/09 03:45:56;;;;;;;3.20;2.00;;;;;;;;;;5057770;28;20110;-73
2023/05/09 03:48:22;;;;;;;3.47;2.17;;;;;;;;;;5071862;28;20044;-73
2023/05/09 03:50:49;;;;;;;2.65;1.85;;;;;;;;;;5062967;28;20082;-72
2023/05/09 03:56:37;;;;;;;2.40;2.13;;;;;;;;;;5070979;28;20047;-73
2023/05/09 03:59:03;;;;;;;4.32;2.47;;;;;;;;;;5071925;28;20051;-73
2023/05/09 04:01:29;;;;;;;2.95;2.55;;;;;;;;;;5062806;28;20143;-73
2023/05/09 04:03:59;;;;;;;4.25;3.10;;;;;;;;;;5069332;28;20052;-73
2023/05/09 04:06:25;;;;;;;5.40;3.03;;;;;;;;;;5069005;28;20139;-73
2023/05/09 04:08:51;;;;;;;3.88;2.70;;;;;;;;;;5071612;28;20412;-73
2023/05/09 04:11:18;;;;;;;3.88;3.10;;;;;;;;;;5065879;28;20368;-73
2023/05/09 04:13:44;;;;;;;4.50;3.25;;;;;;;;;;5071931;28;20057;-73
2023/05/09 04:16:10;;;;;;;5.57;3.50;;;;;;;;;;5066498;28;20420;-73
2023/05/09 04:18:40;;;;;;;3.55;3.10;;;;;;;;;;5071477;28;20060;-73
2023/05/09 04:21:07;;;;;;;4.10;2.70;;;;;;;;;;5066982;28;20087;-72
2023/05/09 04:23:33;;;;;;;6.28;3.40;;;;;;;;;;5071412;28;20471;-72
2023/05/09 04:26:00;;;;;;;6.32;3.22;;;;;;;;;;5064670;28;20426;-72
2023/05/09 04:28:26;;;;;;;4.78;3.58;;;;;;;;;;5071528;28;20381;-73
2023/05/09 04:30:53;;;;;;;4.93;3.20;;;;;;;;;;5057622;28;20054;-72
2023/05/09 04:33:20;;;;;;;6.30;3.63;;;;;;;;;;5071580;28;20439;-73
2023/05/09 04:35:47;;;;;;;6.63;3.63;;;;;;;;;;5062415;28;20156;-72
2023/05/09 04:38:13;;;;;;;7.25;4.25;;;;;;;;;;5070125;28;20287;-72
2023/05/09 04:40:40;;;;;;;8.20;4.63;;;;;;;;;;5061930;28;20059;-72
2023/05/09 04:43:06;;;;;;;10.93;5.03;;;;;;;;;;5071381;28;20063;-72
2023/05/09 04:45:33;;;;;;;12.07;6.43;;;;;;;;;;5060772;28;20060;-72
2023/05/09 04:47:59;;;;;;;17.20;6.78;;;;;;;;;;5071198;28;20047;-72
2023/05/09 04:50:26;;;;;;;12.43;6.38;;;;;;;;;;5050642;28;20084;-72
2023/05/09 04:52:52;;;;;;;16.45;7.13;;;;;;;;;;5071201;28;20048;-72
2023/05/09 04:55:18;;;;;;;21.05;7.82;;;;;;;;;;5060056;28;20053;-72
2023/05/09 04:57:45;;;;;;;16.13;6.97;;;;;;;;;;5070252;28;20049;-72
2023/05/09 05:00:11;;;;;;;16.95;7.45;;;;;;;;;;5053207;28;20095;-72
2023/05/09 05:02:38;;;;;;;22.02;7.57;;;;;;;;;;5065599;28;20061;-72
2023/05/09 05:05:05;;;;;;;21.00;7.15;;;;;;;;;;5054752;28;20511;-72
2023/05/09 05:07:37;;;;;;;20.13;6.93;;;;;;;;;;5061711;28;20139;-72
2023/05/09 05:10:05;;;;;;;17.42;6.50;;;;;;;;;;5062276;28;20456;-72
2023/05/09 05:12:31;;;;;;;18.90;7.50;;;;;;;;;;5064780;28;20054;-72
2023/05/09 05:14:58;;;;;;;18.58;6.63;;;;;;;;;;5069289;28;20127;-72
2023/05/09 05:17:24;;;;;;;17.33;6.50;;;;;;;;;;5075021;28;20049;-72
2023/05/09 05:19:51;;;;;;;18.35;6.55;;;;;;;;;;5071363;28;20512;-72
2023/05/09 05:22:17;;;;;;;19.23;6.60;;;;;;;;;;5074595;28;20052;-72
2023/05/09 05:24:43;;;;;;;21.95;6.60;;;;;;;;;;5070007;28;20084;-72
2023/05/09 05:27:10;;;;;;;24.95;6.82;;;;;;;;;;5074814;28;20132;-72
2023/05/09 05:29:36;;;;;;;16.38;6.53;;;;;;;;;;5066880;28;20053;-72
2023/05/09 05:32:03;;;;;;;17.50;6.30;;;;;;;;;;5074541;28;20044;-72
2023/05/09 05:34:30;;;;;;;14.23;6.32;;;;;;;;;;5067810;28;20555;-72
2023/05/09 05:36:56;;;;;;;16.65;6.00;;;;;;;;;;5071707;28;20067;-72
2023/05/09 05:39:22;;;;;;;13.98;6.47;;;;;;;;;;5070921;28;20506;-72
2023/05/09 05:41:50;;;;;;;14.40;6.43;;;;;;;;;;5071382;28;20132;-72
2023/05/09 05:44:17;;;;;;;18.02;6.47;;;;;;;;;;5071233;28;20114;-72
2023/05/09 05:46:43;;;;;;;15.40;5.60;;;;;;;;;;5064915;28;20055;-71
2023/05/09 05:49:09;;;;;;;20.48;6.18;;;;;;;;;;5071260;28;20055;-72
2023/05/09 05:51:36;;;;;;;16.40;5.60;;;;;;;;;;5059628;28;20558;-72
2023/05/09 05:54:03;;;;;;;12.25;5.18;;;;;;;;;;5073655;28;20486;-72
2023/05/09 05:56:29;;;;;;;14.47;5.97;;;;;;;;;;5064761;28;20048;-72
2023/05/09 05:58:56;;;;;;;9.52;5.07;;;;;;;;;;5073969;28;20044;-72
2023/05/09 06:01:22;;;;;;;19.73;5.63;;;;;;;;;;5055857;28;20475;-72
2023/05/09 06:03:53;;;;;;;17.23;5.25;;;;;;;;;;5073960;28;20064;-72
2023/05/09 06:06:22;;;;;;;14.30;5.03;;;;;;;;;;5058987;28;20481;-72
2023/05/09 06:08:49;;;;;;;16.05;5.50;;;;;;;;;;5073346;28;20460;-72
2023/05/09 06:11:15;;;;;;;13.10;5.35;;;;;;;;;;5058031;28;20078;-72
2023/05/09 06:13:42;;;;;;;16.10;4.80;;;;;;;;;;5073931;28;20098;-72
2023/05/09 06:16:08;;;;;;;16.80;5.63;;;;;;;;;;5070669;28;20484;-71
2023/05/09 06:18:45;;;;;;;13.15;5.10;;;;;;;;;;5073296;28;20053;-76
2023/05/09 06:21:11;;;;;;;13.10;4.53;;;;;;;;;;5057802;28;20091;-76
2023/05/09 06:23:37;;;;;;;13.43;4.53;;;;;;;;;;5073677;28;20052;-76
2023/05/09 06:26:16;;;;;;;13.82;4.13;;;;;;;;;;5047513;28;20044;-78
2023/05/09 06:28:42;;;;;;;11.52;3.70;;;;;;;;;;5054888;28;20071;-78
2023/05/09 06:31:08;;;;;;;13.90;3.92;;;;;;;;;;5052004;28;20051;-79
2023/05/09 06:33:35;;;;;;;11.80;4.45;;;;;;;;;;5053310;28;20485;-76
2023/05/09 06:36:02;;;;;;;8.18;4.03;;;;;;;;;;5045752;28;20132;-76
2023/05/09 06:38:28;;;;;;;11.15;3.90;;;;;;;;;;5051979;28;20084;-75
2023/05/09 06:40:54;;;;;;;9.45;4.28;;;;;;;;;;5063932;28;20044;-76
2023/05/09 06:43:21;;;;;;;10.77;3.83;;;;;;;;;;5072945;28;20131;-76
2023/05/09 06:45:47;;;;;;;8.52;3.10;;;;;;;;;;5047280;28;20049;-77
2023/05/09 06:48:13;;;;;;;5.95;2.45;;;;;;;;;;5072681;28;20468;-76
2023/05/09 06:50:40;;;;;;;6.75;2.75;;;;;;;;;;5057781;28;20045;-76
2023/05/09 06:53:06;;;;;;;6.72;2.65;;;;;;;;;;5072507;28;20048;-75
2023/05/09 06:55:33;;;;;;;5.10;3.13;;;;;;;;;;5050257;28;20151;-76
2023/05/09 06:57:59;;;;;;;8.68;4.03;;;;;;;;;;5073057;28;20407;-74
2023/05/09 07:00:25;;;;;;;7.88;3.50;;;;;;;;;;5062327;28;20053;-74
2023/05/09 07:02:52;;;;;;;12.65;8.32;;;;;;;;;;5071034;28;20056;-74
2023/05/09 07:05:19;;;;;;;7.75;5.00;;;;;;;;;;5052350;28;20049;-74
2023/05/09 07:07:45;;;;;;;9.85;7.35;;;;;;;;;;5066188;28;20052;-76
2023/05/09 07:10:12;;;;;;;8.95;5.70;;;;;;;;;;5061837;28;20082;-70
2023/05/09 07:12:38;;;;;;;18.85;13.52;;;;;;;;;;5057558;28;20458;-73
2023/05/09 07:15:05;;;;;;;17.67;13.45;;;;;;;;;;5063162;28;20437;-73
2023/05/09 07:17:32;;;;;;;11.93;7.90;;;;;;;;;;5070684;28;20051;-73
2023/05/09 07:19:58;;;;;;;18.08;15.07;;;;;;;;;;5063790;28;20443;-74
2023/05/09 07:22:25;;;;;;;17.77;13.25;;;;;;;;;;5068416;28;20059;-73
2023/05/09 07:24:52;;;;;;;15.07;12.50;;;;;;;;;;5064617;28;20048;-73
2023/05/09 07:27:18;;;;;;;17.63;12.77;;;;;;;;;;5066806;28;20368;-73
2023/05/09 07:29:44;;;;;;;13.48;7.70;;;;;;;;;;5061485;28;20378;-73
2023/05/09 07:32:11;;;;;;;16.73;11.07;;;;;;;;;;5045206;28;20049;-73
2023/05/09 07:34:37;;;;;;;11.77;7.80;;;;;;;;;;5065012;28;20523;-72
2023/05/09 07:37:04;;;;;;;11.07;6.18;;;;;;;;;;5059005;28;20143;-73
2023/05/09 07:39:30;;;;;;;9.05;4.57;;;;;;;;;;5047763;28;20048;-73
2023/05/09 07:41:56;;;;;;;7.88;3.03;;;;;;;;;;5052817;28;20087;-73
2023/05/09 07:44:23;;;;;;;6.22;3.42;;;;;;;;;;5067027;28;20167;-73
2023/05/09 07:46:49;;;;;;;5.75;2.50;;;;;;;;;;5042791;28;20492;-73
2023/05/09 07:49:16;;;;;;;6.20;3.22;;;;;;;;;;5066393;28;20147;-73
2023/05/09 07:51:42;;;;;;;5.35;2.97;;;;;;;;;;5060938;28;20067;-73
2023/05/09 07:54:08;;;;;;;6.72;2.53;;;;;;;;;;5070487;28;20048;-73
2023/05/09 07:56:35;;;;;;;4.30;3.20;;;;;;;;;;5058817;28;20135;-72
2023/05/09 07:59:02;;;;;;;3.70;2.25;;;;;;;;;;5072007;28;20404;-72
2023/05/09 08:01:28;;;;;;;3.63;2.20;;;;;;;;;;5056260;28;20512;-72
2023/05/09 08:03:54;;;;;;;2.03;1.58;;;;;;;;;;5071824;28;20051;-72
2023/05/09 08:06:21;;;;;;;3.83;2.08;;;;;;;;;;5044178;28;20063;-72
2023/05/09 08:08:48;;;;;;;3.30;1.50;;;;;;;;;;5072099;28;20053;-72
2023/05/09 08:11:14;;;;;;;1.85;1.33;;;;;;;;;;5053846;28;20520;-72
2023/05/09 08:13:40;;;;;;;2.45;1.30;;;;;;;;;;5060434;28;20495;-72
2023/05/09 08:16:07;;;;;;;2.03;1.40;;;;;;;;;;5066029;28;20157;-72
2023/05/09 08:18:33;;;;;;;2.65;1.60;;;;;;;;;;5071292;28;20415;-72
2023/05/09 08:21:00;;;;;;;0.88;0.88;;;;;;;;;;5064759;28;20442;-72
2023/05/09 08:23:26;;;;;;;2.15;0.95;;;;;;;;;;5071606;28;20052;-72
2023/05/09 08:25:53;;;;;;;1.02;0.93;;;;;;;;;;5054912;28;20169;-73
2023/05/09 08:28:22;;;;;;;1.37;0.90;;;;;;;;;;5071661;28;20044;-72
2023/05/09 08:30:50;;;;;;;1.15;1.00;;;;;;;;;;5059611;28;20044;-72
2023/05/09 08:33:16;;;;;;;2.00;1.48;;;;;;;;;;5071513;28;20143;-72
2023/05/09 08:35:43;;;;;;;2.25;0.80;;;;;;;;;;5058693;28;20056;-72
2023/05/09 08:38:09;;;;;;;0.80;0.80;;;;;;;;;;5071370;28;20048;-72
2023/05/09 08:40:36;;;;;;;0.77;0.70;;;;;;;;;;5046764;28;20458;-72
2023/05/09 08:43:06;;;;;;;2.55;0.88;;;;;;;;;;5071219;28;20073;-72
2023/05/09 08:45:44;;;;;;;1.00;0.77;;;;;;;;;;5047133;28;20141;-72
2023/05/09 08:48:11;;;;;;;2.00;1.80;;;;;;;;;;5044516;28;20067;-72
2023/05/09 08:50:37;;;;;;;2.50;2.30;;;;;;;;;;5059984;28;20051;-72
2023/05/09 08:53:04;;;;;;;1.20;1.20;;;;;;;;;;5074338;28;20056;-72
2023/05/09 08:55:31;;;;;;;1.43;1.10;;;;;;;;;;5063071;28;20056;-71
2023/05/09 08:57:57;;;;;;;1.75;0.93;;;;;;;;;;5071295;28;20068;-71
2023/05/09 09:00:24;;;;;;;1.23;0.68;;;;;;;;;;5051495;28;20404;-71
2023/05/09 09:02:51;;;;;;;1.23;0.65;;;;;;;;;;5067571;28;20384;-71
2023/05/09 09:05:18;;;;;;;0.90;0.70;;;;;;;;;;5063453;28;20099;-71
2023/05/09 09:08:06;;;;;;;0.88;0.88;;;;;;;;;;5074001;28;20056;-71
2023/05/09 09:10:32;;;;;;;;;;;;;;;;;;5063133;28;20053;-71
2023/05/09 09:12:59;;;;;;;0.77;0.73;;;;;;;;;;5053942;28;19972;-71
2023/05/09 09:15:33;;;;;;;2.00;0.90;;;;;;;;;;5063134;28;20040;-71
2023/05/09 09:18:03;;;;;;;0.82;0.63;;;;;;;;;;5075295;28;20059;-71
2023/05/09 09:20:33;;;;;;;0.80;0.40;;;;;;;;;;5068477;28;20048;-71
2023/05/09 09:23:02;;;;;;;1.02;0.40;;;;;;;;;;5063343;28;20049;-70
2023/05/09 09:25:29;;;;;;;0.20;0.13;;;;;;;;;;5062942;28;20397;-71
2023/05/09 09:27:55;;;;;;;0.20;0.20;;;;;;;;;;5066709;28;20059;-71
2023/05/09 09:30:25;;;;;;;0.38;0.20;;;;;;;;;;5047423;28;20049;-71
2023/05/09 09:32:51;;;;;;;0.95;0.20;;;;;;;;;;5046849;28;20048;-71
2023/05/09 09:35:19;;;;;;;0.13;0.10;;;;;;;;;;5054815;28;20050;-71
2023/05/09 09:37:45;;;;;;;0.10;0.10;;;;;;;;;;5071284;28;20135;-71
2023/05/09 09:40:13;;;;;;;0.20;0.20;;;;;;;;;;5063869;28;20415;-71
2023/05/09 09:42:43;;;;;;;0.13;0.10;;;;;;;;;;5069022;28;20404;-71
2023/05/09 09:45:11;;;;;;;0.55;0.10;;;;;;;;;;5045348;28;20053;-71
2023/05/09 09:47:37;;;;;;;0.35;0.10;;;;;;;;;;5065194;28;20135;-71
2023/05/09 09:50:13;;;;;;;0.57;0.10;;;;;;;;;;5053069;28;20041;-71
2023/05/09 09:52:43;;;;;;;0.00;0.00;;;;;;;;;;5057006;28;20076;-71
2023/05/09 09:55:10;;;;;;;0.20;0.10;;;;;;;;;;5064108;28;20135;-71
2023/05/09 09:57:38;;;;;;;0.30;0.00;;;;;;;;;;5071004;28;20054;-71
2023/05/09 10:00:05;;;;;;;0.70;0.00;;;;;;;;;;5065042;28;20131;-71
2023/05/09 10:02:32;;;;;;;0.00;0.00;;;;;;;;;;5066842;28;20456;-71
2023/05/09 10:05:05;;;;;;;0.30;0.10;;;;;;;;;;5065290;28;20557;-70
2023/05/09 10:07:34;;;;;;;0.30;0.10;;;;;;;;;;5068462;28;20135;-71
2023/05/09 10:10:04;;;;;;;0.68;0.20;;;;;;;;;;5065845;28;20491;-71
2023/05/09 10:12:33;;;;;;;0.35;0.10;;;;;;;;;;5067788;28;20131;-71
2023/05/09 10:15:00;;;;;;;0.28;0.10;;;;;;;;;;5071059;28;20557;-70
2023/05/09 10:17:28;;;;;;;0.30;0.20;;;;;;;;;;5074044;28;20055;-70
2023/05/09 10:19:54;;;;;;;0.20;0.20;;;;;;;;;;5070258;28;20044;-71
2023/05/09 10:22:22;;;;;;;0.30;0.10;;;;;;;;;;5073728;28;20044;-70
2023/05/09 10:24:48;;;;;;;0.93;0.20;;;;;;;;;;5067698;28;20040;-71
2023/05/09 10:27:18;;;;;;;0.47;0.20;;;;;;;;;;5066272;28;20120;-70
2023/05/09 10:29:47;;;;;;;0.10;0.10;;;;;;;;;;5052225;28;20045;-70
2023/05/09 10:32:19;;;;;;;0.93;0.10;;;;;;;;;;5073092;28;20567;-70
2023/05/09 10:34:46;;;;;;;0.30;0.10;;;;;;;;;;5066792;28;20374;-70
2023/05/09 10:37:14;;;;;;;0.47;0.10;;;;;;;;;;5072057;28;20047;-70
2023/05/09 10:39:41;;;;;;;0.35;0.10;;;;;;;;;;5067020;28;20060;-70
2023/05/09 10:42:07;;;;;;;0.90;0.20;;;;;;;;;;5070052;28;20135;-71
2023/05/09 10:44:33;;;;;;;0.38;0.20;;;;;;;;;;5065531;28;20715;-71
2023/05/09 10:47:00;;;;;;;0.10;0.10;;;;;;;;;;5063260;28;20053;-69
2023/05/09 10:49:27;;;;;;;0.15;0.10;;;;;;;;;;5068957;28;20361;-69
2023/05/09 10:51:54;;;;;;;0.40;0.20;;;;;;;;;;5065129;28;20044;-69
2023/05/09 10:54:27;;;;;;;0.13;0.00;;;;;;;;;;5069109;28;20044;-69
2023/05/09 10:56:56;;;;;;;0.25;0.10;;;;;;;;;;5058829;28;20048;-69
2023/05/09 10:59:36;;;;;;;0.00;0.00;;;;;;;;;;5068131;28;20052;-69
2023/05/09 11:02:03;;;;;;;0.10;0.10;;;;;;;;;;5039345;28;20115;-69
2023/05/09 11:04:33;;;;;;;2.10;0.40;;;;;;;;;;5065970;28;20054;-69
2023/05/09 11:06:59;;;;;;;0.68;0.20;;;;;;;;;;5061660;28;20491;-69
2023/05/09 11:09:40;;;;;;;1.50;0.20;;;;;;;;;;5069038;28;20639;-69
2023/05/09 11:12:08;;;;;;;0.52;0.50;;;;;;;;;;5063164;28;20305;-69
2023/05/09 11:14:34;;;;;;;0.68;0.30;;;;;;;;;;5069141;28;20064;-69
2023/05/09 11:17:02;;;;;;;0.20;0.20;;;;;;;;;;5072692;28;20090;-69
2023/05/09 11:19:58;;;;;;;0.20;0.20;;;;;;;;;;5068386;28;20084;-69
2023/05/09 11:22:26;;;;;;;0.88;0.88;;;;;;;;;;5063518;28;20048;-69
2023/05/09 11:25:09;;;;;;;0.82;0.60;;;;;;;;;;5068000;28;20131;-69
2023/05/09 11:27:36;;;;;;;1.10;0.28;;;;;;;;;;5045468;28;20132;-69
2023/05/09 11:30:05;;;;;;;0.90;0.60;;;;;;;;;;5058981;28;20049;-69
2023/05/09 11:32:32;;;;;;;0.63;0.38;;;;;;;;;;5069277;28;20063;-69
2023/05/09 11:35:06;;;;;;;0.35;0.22;;;;;;;;;;5057956;28;20057;-69
2023/05/09 11:37:32;;;;;;;3.92;3.15;;;;;;;;;;5069061;28;20407;-69
2023/05/09 11:40:00;;;;;;;2.53;2.33;;;;;;;;;;5057773;28;20057;-69
2023/05/09 11:42:27;;;;;;;1.80;1.70;;;;;;;;;;5065552;28;20051;-69
2023/05/09 11:44:54;;;;;;;1.20;1.10;;;;;;;;;;5064115;28;20053;-69
2023/05/09 11:47:21;;;;;;;;;;;;;;;;;;5067674;28;20055;-70
2023/05/09 11:49:48;;;;;;;0.80;0.77;;;;;;;;;;5064051;28;19924;-69
2023/05/09 11:52:14;;;;;;;;;;;;;;;;;;5065549;28;20049;-69
2023/05/09 11:54:41;;;;;;;1.80;1.17;;;;;;;;;;5065555;28;19925;-70
2023/05/09 11:57:08;;;;;;;1.10;1.00;;;;;;;;;;5063529;28;20052;-70
2023/05/09 11:59:35;;;;;;;2.63;2.42;;;;;;;;;;5050625;28;20163;-71
2023/05/09 12:02:04;;;;;;;3.45;2.90;;;;;;;;;;5051368;28;20088;-71
2023/05/09 12:04:31;;;;;;;5.15;4.32;;;;;;;;;;5066664;28;20166;-71
2023/05/09 12:06:58;;;;;;;1.58;1.48;;;;;;;;;;5061837;28;20135;-72
2023/05/09 12:09:29;;;;;;;2.03;1.20;;;;;;;;;;5068922;28;20049;-72
2023/05/09 12:11:55;;;;;;;5.50;5.00;;;;;;;;;;5059370;28;20058;-71
2023/05/09 12:14:29;;;;;;;0.98;0.40;;;;;;;;;;5069130;28;20057;-71
2023/05/09 12:16:55;;;;;;;0.77;0.75;;;;;;;;;;5071511;28;20055;-72
2023/05/09 12:19:23;;;;;;;0.85;0.85;;;;;;;;;;5068036;28;20049;-71
2023/05/09 12:21:54;;;;;;;3.90;3.47;;;;;;;;;;5067009;28;20132;-72
2023/05/09 12:24:20;;;;;;;0.60;0.47;;;;;;;;;;5054521;28;20049;-72
2023/05/09 12:26:47;;;;;;;0.93;0.30;;;;;;;;;;5070191;28;20044;-72
2023/05/09 12:29:14;;;;;;;1.33;0.82;;;;;;;;;;5058060;28;20461;-72
2023/05/09 12:31:40;;;;;;;2.67;1.48;;;;;;;;;;5067291;28;20392;-70
2023/05/09 12:34:08;;;;;;;0.80;0.80;;;;;;;;;;5070945;28;20052;-70
2023/05/09 12:36:35;;;;;;;1.60;0.60;;;;;;;;;;5043137;28;20044;-69
2023/05/09 12:39:08;;;;;;;1.30;0.98;;;;;;;;;;5070813;28;20454;-69
2023/05/09 12:41:41;;;;;;;1.52;0.65;;;;;;;;;;5061984;28;20059;-69
2023/05/09 12:44:28;;;;;;;2.17;0.90;;;;;;;;;;5070965;28;20066;-69
2023/05/09 12:46:55;;;;;;;0.80;0.35;;;;;;;;;;5065359;28;20412;-69
2023/05/09 12:49:22;;;;;;;0.85;0.45;;;;;;;;;;5050731;28;20053;-69
2023/05/09 12:51:49;;;;;;;0.60;0.57;;;;;;;;;;5052501;28;20140;-69
2023/05/09 12:54:20;;;;;;;0.55;0.30;;;;;;;;;;5070019;28;20052;-69
2023/05/09 12:56:47;;;;;;;0.75;0.40;;;;;;;;;;5065327;28;20113;-69
2023/05/09 12:59:19;;;;;;;0.50;0.47;;;;;;;;;;5055339;28;20053;-69
2023/05/09 13:01:50;;;;;;;1.00;0.50;;;;;;;;;;5063007;28;20079;-69
2023/05/09 13:04:18;;;;;;;0.80;0.80;;;;;;;;;;5066844;28;20049;-69
2023/05/09 13:06:52;;;;;;;1.13;0.30;;;;;;;;;;5060768;28;20416;-68
2023/05/09 13:09:18;;;;;;;1.35;0.63;;;;;;;;;;5052561;28;20044;-69
2023/05/09 13:11:46;;;;;;;0.30;0.25;;;;;;;;;;5055081;28;20566;-69
2023/05/09 13:14:13;;;;;;;2.00;0.50;;;;;;;;;;5071231;28;20080;-69
2023/05/09 13:16:40;;;;;;;;;;;;;;;;;;5065451;28;20052;-70
2023/05/09 13:19:06;;;;;;;;;;;;;;;;;;5070530;28;19971;-69
2023/05/09 13:21:33;;;;;;;1.02;0.30;;;;;;;;;;5052370;28;19929;-69
2023/05/09 13:23:59;;;;;;;0.75;0.40;;;;;;;;;;5050699;28;20140;-69
2023/05/09 13:26:26;;;;;;;;;;;;;;;;;;5062859;28;20791;-69
2023/05/09 13:28:52;;;;;;;0.90;0.60;;;;;;;;;;5070933;28;19920;-69
2023/05/09 13:31:19;;;;;;;1.67;0.40;;;;;;;;;;5067901;28;20385;-69
2023/05/09 13:33:45;;;;;;;;;;;;;;;;;;5056419;28;20048;-69
2023/05/09 13:36:12;;;;;;;0.63;0.35;;;;;;;;;;5068778;28;19921;-69
2023/05/09 13:38:39;;;;;;;0.63;0.40;;;;;;;;;;5072079;28;20052;-69
2023/05/09 13:41:06;;;;;;;;;;;;;;;;;;5068340;28;20045;-69
2023/05/09 13:43:32;;;;;;;0.32;0.32;;;;;;;;;;5057811;28;19960;-69
2023/05/09 13:45:59;;;;;;;1.42;0.70;;;;;;;;;;5074656;28;20048;-70
2023/05/09 13:48:25;;;;;;;1.40;1.27;;;;;;;;;;5053267;28;20114;-69
2023/05/09 13:50:52;;;;;;;1.08;0.73;;;;;;;;;;5058857;28;20084;-69
2023/05/09 13:53:18;;;;;;;0.68;0.40;;;;;;;;;;5057048;28;20127;-69
2023/05/09 13:55:46;;;;;;;0.53;0.40;;;;;;;;;;5074445;28;20472;-69
2023/05/09 13:58:12;;;;;;;3.33;2.25;;;;;;;;;;5071712;28;20127;-69
2023/05/09 14:00:38;;;;;;;0.82;0.52;;;;;;;;;;5074138;28;20078;-69
2023/05/09 14:03:05;;;;;;;1.58;1.48;;;;;;;;;;5070444;28;20140;-69
2023/05/09 14:05:31;;;;;;;1.30;0.60;;;;;;;;;;5073839;28;20139;-69
2023/05/09 14:07:58;;;;;;;0.85;0.40;;;;;;;;;;5061816;28;20044;-69
2023/05/09 14:10:25;;;;;;;2.80;2.30;;;;;;;;;;5073790;28;20400;-69
2023/05/09 14:12:52;;;;;;;2.60;0.50;;;;;;;;;;5056456;28;20099;-70
2023/05/09 14:15:19;;;;;;;4.35;3.92;;;;;;;;;;5064426;28;20482;-69
2023/05/09 14:17:45;;;;;;;7.57;6.88;;;;;;;;;;5061401;28;20389;-69
2023/05/09 14:20:14;;;;;;;8.80;7.90;;;;;;;;;;5073619;28;20106;-70
2023/05/09 14:22:41;;;;;;;10.85;9.82;;;;;;;;;;5050265;28;20065;-69
2023/05/09 14:25:07;;;;;;;5.57;4.65;;;;;;;;;;5058662;28;20047;-69
2023/05/09 14:27:37;;;;;;;3.58;3.38;;;;;;;;;;5073123;28;20048;-70
2023/05/09 14:30:04;;;;;;;3.38;1.40;;;;;;;;;;5073169;28;20044;-69
2023/05/09 14:32:30;;;;;;;1.70;1.38;;;;;;;;;;5072841;28;20054;-64
2023/05/09 14:34:56;;;;;;;1.75;1.30;;;;;;;;;;5072831;28;20056;-64
2023/05/09 14:37:23;;;;;;;3.40;3.00;;;;;;;;;;5065320;28;20045;-64
2023/05/09 14:39:49;;;;;;;4.63;3.78;;;;;;;;;;5066070;28;20048;-64
2023/05/09 14:42:16;;;;;;;4.45;3.88;;;;;;;;;;5063719;28;20355;-63
2023/05/09 14:44:44;;;;;;;3.13;2.20;;;;;;;;;;5060407;28;20056;-64
2023/05/09 14:47:10;;;;;;;5.70;3.00;;;;;;;;;;5071936;28;20080;-64